Terminal Aerodrome Forecast
Issued by NWS Chicago, IL

Home | Current Version | Previous Version | Graphics & Text | Print | Product List | Glossary On
Versions: 1 2 3 4 5 6 7 8 9 10 11 12 13 14 15 16 17 18 19 20 21 22 23 24 25 26 27 28 29 30 31 32 33
715
FTUS43 KLOT 211725
TAFRFD
TAF
KRFD 211725Z 2118/2218 20012KT P6SM FEW006 SCT015
     FM220000 18004KT 5SM BR SCT007 BKN015
     FM220400 VRB02KT 2SM BR SCT004 OVC007
     FM220700 VRB02KT 3/4SM BR OVC004
     FM221600 05008KT 2SM BR OVC006=

USA.gov is the U.S. government's official web portal to all federal, state and local government web resources and services.